sensor_id;sensor_type;location;lat;lon;timestamp;temperature;humidity
12125;DHT22;6126;57.908;16.490;2023-07-24T00:00:24;16.70;77.90
12125;DHT22;6126;57.908;16.490;2023-07-24T00:02:50;16.40;77.70
12125;DHT22;6126;57.908;16.490;2023-07-24T00:05:16;16.50;77.90
12125;DHT22;6126;57.908;16.490;2023-07-24T00:07:42;16.80;78.30
12125;DHT22;6126;57.908;16.490;2023-07-24T00:10:08;16.50;78.10
12125;DHT22;6126;57.908;16.490;2023-07-24T00:12:34;16.70;78.40
12125;DHT22;6126;57.908;16.490;2023-07-24T00:15:00;16.80;78.60
12125;DHT22;6126;57.908;16.490;2023-07-24T00:17:26;16.40;78.20
12125;DHT22;6126;57.908;16.490;2023-07-24T00:19:52;16.40;78.30
12125;DHT22;6126;57.908;16.490;2023-07-24T00:22:18;16.60;78.60
12125;DHT22;6126;57.908;16.490;2023-07-24T00:24:43;16.30;78.40
12125;DHT22;6126;57.908;16.490;2023-07-24T00:27:09;16.40;78.50
12125;DHT22;6126;57.908;16.490;2023-07-24T00:29:35;16.40;78.60
12125;DHT22;6126;57.908;16.490;2023-07-24T00:32:01;16.40;78.60
12125;DHT22;6126;57.908;16.490;2023-07-24T00:34:27;16.30;78.60
12125;DHT22;6126;57.908;16.490;2023-07-24T00:36:53;16.50;78.90
12125;DHT22;6126;57.908;16.490;2023-07-24T00:39:19;16.40;78.80
12125;DHT22;6126;57.908;16.490;2023-07-24T00:41:44;16.10;78.70
12125;DHT22;6126;57.908;16.490;2023-07-24T00:44:10;16.50;79.20
12125;DHT22;6126;57.908;16.490;2023-07-24T00:46:36;16.20;78.80
12125;DHT22;6126;57.908;16.490;2023-07-24T00:49:04;16.20;79.00
12125;DHT22;6126;57.908;16.490;2023-07-24T00:51:30;16.10;79.20
12125;DHT22;6126;57.908;16.490;2023-07-24T00:54:00;16.00;79.20
12125;DHT22;6126;57.908;16.490;2023-07-24T00:56:28;16.10;79.50
12125;DHT22;6126;57.908;16.490;2023-07-24T00:58:55;16.20;79.60
12125;DHT22;6126;57.908;16.490;2023-07-24T01:01:23;16.30;79.70
12125;DHT22;6126;57.908;16.490;2023-07-24T01:03:49;16.20;79.60
12125;DHT22;6126;57.908;16.490;2023-07-24T01:06:15;16.40;79.60
12125;DHT22;6126;57.908;16.490;2023-07-24T01:08:41;16.50;79.70
12125;DHT22;6126;57.908;16.490;2023-07-24T01:11:19;16.30;79.50
12125;DHT22;6126;57.908;16.490;2023-07-24T01:13:56;16.50;79.60
12125;DHT22;6126;57.908;16.490;2023-07-24T01:16:38;16.40;79.50
12125;DHT22;6126;57.908;16.490;2023-07-24T01:27:42;16.60;79.70
12125;DHT22;6126;57.908;16.490;2023-07-24T01:30:10;16.10;79.20
12125;DHT22;6126;57.908;16.490;2023-07-24T01:32:38;16.20;79.30
12125;DHT22;6126;57.908;16.490;2023-07-24T01:35:05;16.20;79.40
12125;DHT22;6126;57.908;16.490;2023-07-24T01:37:32;16.50;79.80
12125;DHT22;6126;57.908;16.490;2023-07-24T01:40:01;16.30;79.90
12125;DHT22;6126;57.908;16.490;2023-07-24T01:42:28;16.30;80.10
12125;DHT22;6126;57.908;16.490;2023-07-24T01:44:55;16.10;80.00
12125;DHT22;6126;57.908;16.490;2023-07-24T01:47:22;16.10;80.00
12125;DHT22;6126;57.908;16.490;2023-07-24T01:49:48;16.00;79.90
12125;DHT22;6126;57.908;16.490;2023-07-24T01:52:14;16.00;79.90
12125;DHT22;6126;57.908;16.490;2023-07-24T01:54:40;16.30;80.30
12125;DHT22;6126;57.908;16.490;2023-07-24T01:57:06;16.10;80.10
12125;DHT22;6126;57.908;16.490;2023-07-24T01:59:32;16.20;80.30
12125;DHT22;6126;57.908;16.490;2023-07-24T02:01:58;16.20;80.30
12125;DHT22;6126;57.908;16.490;2023-07-24T02:04:23;16.30;80.30
12125;DHT22;6126;57.908;16.490;2023-07-24T02:06:50;16.40;81.30
12125;DHT22;6126;57.908;16.490;2023-07-24T02:09:19;16.20;80.30
12125;DHT22;6126;57.908;16.490;2023-07-24T02:11:45;16.30;80.50
12125;DHT22;6126;57.908;16.490;2023-07-24T02:14:12;16.30;80.50
12125;DHT22;6126;57.908;16.490;2023-07-24T02:16:42;16.30;80.60
12125;DHT22;6126;57.908;16.490;2023-07-24T02:19:07;16.20;80.60
12125;DHT22;6126;57.908;16.490;2023-07-24T02:21:33;16.10;80.40
12125;DHT22;6126;57.908;16.490;2023-07-24T02:23:59;16.30;80.70
12125;DHT22;6126;57.908;16.490;2023-07-24T02:26:25;16.20;80.60
12125;DHT22;6126;57.908;16.490;2023-07-24T02:28:51;16.10;80.60
12125;DHT22;6126;57.908;16.490;2023-07-24T02:31:17;16.10;80.60
12125;DHT22;6126;57.908;16.490;2023-07-24T02:33:43;16.20;80.80
12125;DHT22;6126;57.908;16.490;2023-07-24T02:36:09;16.10;80.80
12125;DHT22;6126;57.908;16.490;2023-07-24T02:38:34;15.80;80.60
12125;DHT22;6126;57.908;16.490;2023-07-24T02:41:00;16.30;81.30
12125;DHT22;6126;57.908;16.490;2023-07-24T02:43:26;16.00;81.00
12125;DHT22;6126;57.908;16.490;2023-07-24T02:45:52;16.00;81.10
12125;DHT22;6126;57.908;16.490;2023-07-24T02:48:18;16.10;81.30
12125;DHT22;6126;57.908;16.490;2023-07-24T02:50:44;16.20;81.80
12125;DHT22;6126;57.908;16.490;2023-07-24T02:53:10;15.90;81.30
12125;DHT22;6126;57.908;16.490;2023-07-24T02:55:36;15.80;81.20
12125;DHT22;6126;57.908;16.490;2023-07-24T02:58:02;15.90;81.40
12125;DHT22;6126;57.908;16.490;2023-07-24T03:00:27;15.90;81.60
12125;DHT22;6126;57.908;16.490;2023-07-24T03:02:53;15.90;81.60
12125;DHT22;6126;57.908;16.490;2023-07-24T03:05:19;15.80;81.60
12125;DHT22;6126;57.908;16.490;2023-07-24T03:07:45;15.80;81.80
12125;DHT22;6126;57.908;16.490;2023-07-24T03:10:11;15.80;82.00
12125;DHT22;6126;57.908;16.490;2023-07-24T03:12:37;15.90;82.30
12125;DHT22;6126;57.908;16.490;2023-07-24T03:15:03;15.90;82.30
12125;DHT22;6126;57.908;16.490;2023-07-24T03:17:29;15.80;82.20
12125;DHT22;6126;57.908;16.490;2023-07-24T03:19:55;16.00;82.50
12125;DHT22;6126;57.908;16.490;2023-07-24T03:22:21;15.70;82.40
12125;DHT22;6126;57.908;16.490;2023-07-24T03:24:47;15.70;82.60
12125;DHT22;6126;57.908;16.490;2023-07-24T03:27:12;15.70;82.70
12125;DHT22;6126;57.908;16.490;2023-07-24T03:29:39;15.60;82.70
12125;DHT22;6126;57.908;16.490;2023-07-24T03:32:07;15.40;82.80
12125;DHT22;6126;57.908;16.490;2023-07-24T03:34:33;15.50;83.10
12125;DHT22;6126;57.908;16.490;2023-07-24T03:36:58;15.40;83.20
12125;DHT22;6126;57.908;16.490;2023-07-24T03:39:24;15.50;83.40
12125;DHT22;6126;57.908;16.490;2023-07-24T03:41:50;15.40;83.40
12125;DHT22;6126;57.908;16.490;2023-07-24T03:44:16;15.30;83.40
12125;DHT22;6126;57.908;16.490;2023-07-24T03:46:42;15.50;83.60
12125;DHT22;6126;57.908;16.490;2023-07-24T03:49:08;15.50;83.60
12125;DHT22;6126;57.908;16.490;2023-07-24T03:51:33;15.60;84.60
12125;DHT22;6126;57.908;16.490;2023-07-24T03:53:59;15.60;83.90
12125;DHT22;6126;57.908;16.490;2023-07-24T03:56:25;15.70;84.10
12125;DHT22;6126;57.908;16.490;2023-07-24T03:58:52;15.60;84.00
12125;DHT22;6126;57.908;16.490;2023-07-24T04:01:18;15.80;84.20
12125;DHT22;6126;57.908;16.490;2023-07-24T04:03:44;15.70;84.20
12125;DHT22;6126;57.908;16.490;2023-07-24T04:06:10;15.90;84.50
12125;DHT22;6126;57.908;16.490;2023-07-24T04:08:36;15.60;84.10
12125;DHT22;6126;57.908;16.490;2023-07-24T04:11:02;15.80;84.40
12125;DHT22;6126;57.908;16.490;2023-07-24T04:13:30;15.70;84.30
12125;DHT22;6126;57.908;16.490;2023-07-24T04:15:55;15.60;84.00
12125;DHT22;6126;57.908;16.490;2023-07-24T04:18:23;15.80;84.30
12125;DHT22;6126;57.908;16.490;2023-07-24T04:20:48;15.90;84.50
12125;DHT22;6126;57.908;16.490;2023-07-24T04:23:14;15.70;84.40
12125;DHT22;6126;57.908;16.490;2023-07-24T04:25:40;16.00;84.70
12125;DHT22;6126;57.908;16.490;2023-07-24T04:28:06;16.00;84.70
12125;DHT22;6126;57.908;16.490;2023-07-24T04:30:32;15.80;84.50
12125;DHT22;6126;57.908;16.490;2023-07-24T04:32:58;15.80;84.60
12125;DHT22;6126;57.908;16.490;2023-07-24T04:35:26;16.00;85.00
12125;DHT22;6126;57.908;16.490;2023-07-24T04:37:52;15.90;84.80
12125;DHT22;6126;57.908;16.490;2023-07-24T04:40:18;16.10;85.10
12125;DHT22;6126;57.908;16.490;2023-07-24T04:42:44;15.80;84.80
12125;DHT22;6126;57.908;16.490;2023-07-24T04:45:10;15.90;85.00
12125;DHT22;6126;57.908;16.490;2023-07-24T04:47:36;15.70;84.90
12125;DHT22;6126;57.908;16.490;2023-07-24T04:50:03;15.80;85.10
12125;DHT22;6126;57.908;16.490;2023-07-24T04:52:30;15.90;85.30
12125;DHT22;6126;57.908;16.490;2023-07-24T04:54:56;15.90;85.30
12125;DHT22;6126;57.908;16.490;2023-07-24T04:57:21;15.90;85.30
12125;DHT22;6126;57.908;16.490;2023-07-24T04:59:47;16.10;85.50
12125;DHT22;6126;57.908;16.490;2023-07-24T05:02:13;15.80;85.20
12125;DHT22;6126;57.908;16.490;2023-07-24T05:04:39;16.00;85.60
12125;DHT22;6126;57.908;16.490;2023-07-24T05:07:07;15.70;85.30
12125;DHT22;6126;57.908;16.490;2023-07-24T05:09:32;16.00;85.60
12125;DHT22;6126;57.908;16.490;2023-07-24T05:11:58;16.20;86.00
12125;DHT22;6126;57.908;16.490;2023-07-24T05:14:24;15.90;85.70
12125;DHT22;6126;57.908;16.490;2023-07-24T05:16:50;16.00;85.90
12125;DHT22;6126;57.908;16.490;2023-07-24T05:19:16;16.20;86.10
12125;DHT22;6126;57.908;16.490;2023-07-24T05:21:42;15.90;85.90
12125;DHT22;6126;57.908;16.490;2023-07-24T05:24:08;16.20;86.30
12125;DHT22;6126;57.908;16.490;2023-07-24T05:26:34;16.00;86.10
12125;DHT22;6126;57.908;16.490;2023-07-24T05:28:59;16.10;86.30
12125;DHT22;6126;57.908;16.490;2023-07-24T05:31:25;15.90;86.10
12125;DHT22;6126;57.908;16.490;2023-07-24T05:33:51;16.00;86.20
12125;DHT22;6126;57.908;16.490;2023-07-24T05:36:17;16.10;86.40
12125;DHT22;6126;57.908;16.490;2023-07-24T05:38:43;16.10;86.50
12125;DHT22;6126;57.908;16.490;2023-07-24T05:41:09;16.20;86.50
12125;DHT22;6126;57.908;16.490;2023-07-24T05:43:34;16.10;86.50
12125;DHT22;6126;57.908;16.490;2023-07-24T05:46:00;16.10;86.40
12125;DHT22;6126;57.908;16.490;2023-07-24T05:48:26;15.90;86.30
12125;DHT22;6126;57.908;16.490;2023-07-24T05:50:52;16.10;86.50
12125;DHT22;6126;57.908;16.490;2023-07-24T05:53:18;16.10;86.50
12125;DHT22;6126;57.908;16.490;2023-07-24T05:55:44;15.80;86.30
12125;DHT22;6126;57.908;16.490;2023-07-24T05:58:10;16.10;86.70
12125;DHT22;6126;57.908;16.490;2023-07-24T06:00:36;16.00;86.70
12125;DHT22;6126;57.908;16.490;2023-07-24T06:03:03;16.00;86.80
12125;DHT22;6126;57.908;16.490;2023-07-24T06:05:29;16.20;87.00
12125;DHT22;6126;57.908;16.490;2023-07-24T06:07:55;16.00;86.80
12125;DHT22;6126;57.908;16.490;2023-07-24T06:10:21;16.10;87.00
12125;DHT22;6126;57.908;16.490;2023-07-24T06:12:47;15.90;86.80
12125;DHT22;6126;57.908;16.490;2023-07-24T06:15:13;16.20;87.20
12125;DHT22;6126;57.908;16.490;2023-07-24T06:17:39;15.80;86.90
12125;DHT22;6126;57.908;16.490;2023-07-24T06:20:06;16.10;87.20
12125;DHT22;6126;57.908;16.490;2023-07-24T06:22:32;16.10;87.30
12125;DHT22;6126;57.908;16.490;2023-07-24T06:24:58;16.20;87.30
12125;DHT22;6126;57.908;16.490;2023-07-24T06:27:24;16.10;87.30
12125;DHT22;6126;57.908;16.490;2023-07-24T06:29:50;15.90;87.10
12125;DHT22;6126;57.908;16.490;2023-07-24T06:32:15;16.00;87.30
12125;DHT22;6126;57.908;16.490;2023-07-24T06:34:41;16.00;87.30
12125;DHT22;6126;57.908;16.490;2023-07-24T06:37:07;16.10;87.50
12125;DHT22;6126;57.908;16.490;2023-07-24T06:39:33;16.20;87.60
12125;DHT22;6126;57.908;16.490;2023-07-24T06:41:59;16.20;87.70
12125;DHT22;6126;57.908;16.490;2023-07-24T06:44:25;16.30;87.70
12125;DHT22;6126;57.908;16.490;2023-07-24T06:46:51;16.20;87.60
12125;DHT22;6126;57.908;16.490;2023-07-24T06:49:17;16.10;87.60
12125;DHT22;6126;57.908;16.490;2023-07-24T06:51:42;16.40;88.00
12125;DHT22;6126;57.908;16.490;2023-07-24T06:54:08;16.30;87.90
12125;DHT22;6126;57.908;16.490;2023-07-24T06:56:34;16.40;88.00
12125;DHT22;6126;57.908;16.490;2023-07-24T06:59:00;16.20;87.90
12125;DHT22;6126;57.908;16.490;2023-07-24T07:01:26;16.30;87.90
12125;DHT22;6126;57.908;16.490;2023-07-24T07:03:52;16.30;88.00
12125;DHT22;6126;57.908;16.490;2023-07-24T07:06:17;16.30;88.10
12125;DHT22;6126;57.908;16.490;2023-07-24T07:08:43;16.30;88.20
12125;DHT22;6126;57.908;16.490;2023-07-24T07:11:09;16.10;88.10
12125;DHT22;6126;57.908;16.490;2023-07-24T07:13:35;16.20;88.30
12125;DHT22;6126;57.908;16.490;2023-07-24T07:16:01;16.20;88.30
12125;DHT22;6126;57.908;16.490;2023-07-24T07:18:27;16.10;88.30
12125;DHT22;6126;57.908;16.490;2023-07-24T07:20:53;16.10;88.30
12125;DHT22;6126;57.908;16.490;2023-07-24T07:23:20;16.50;88.70
12125;DHT22;6126;57.908;16.490;2023-07-24T07:25:47;16.20;88.30
12125;DHT22;6126;57.908;16.490;2023-07-24T07:28:13;16.10;88.30
12125;DHT22;6126;57.908;16.490;2023-07-24T07:30:41;16.30;88.50
12125;DHT22;6126;57.908;16.490;2023-07-24T07:33:07;16.20;88.40
12125;DHT22;6126;57.908;16.490;2023-07-24T07:35:33;16.30;88.60
12125;DHT22;6126;57.908;16.490;2023-07-24T07:38:00;16.30;88.60
12125;DHT22;6126;57.908;16.490;2023-07-24T07:40:27;16.50;89.00
12125;DHT22;6126;57.908;16.490;2023-07-24T07:42:54;16.30;88.80
12125;DHT22;6126;57.908;16.490;2023-07-24T07:45:21;16.30;88.90
12125;DHT22;6126;57.908;16.490;2023-07-24T07:47:47;16.50;89.10
12125;DHT22;6126;57.908;16.490;2023-07-24T07:50:13;16.30;88.80
12125;DHT22;6126;57.908;16.490;2023-07-24T07:52:39;16.30;88.80
12125;DHT22;6126;57.908;16.490;2023-07-24T07:55:06;16.50;89.00
12125;DHT22;6126;57.908;16.490;2023-07-24T07:57:36;16.30;88.90
12125;DHT22;6126;57.908;16.490;2023-07-24T08:00:04;16.40;89.10
12125;DHT22;6126;57.908;16.490;2023-07-24T08:02:31;16.20;88.90
12125;DHT22;6126;57.908;16.490;2023-07-24T08:04:58;16.60;89.30
12125;DHT22;6126;57.908;16.490;2023-07-24T08:07:24;16.40;89.20
12125;DHT22;6126;57.908;16.490;2023-07-24T08:09:50;16.50;89.40
12125;DHT22;6126;57.908;16.490;2023-07-24T08:12:16;16.50;89.40
12125;DHT22;6126;57.908;16.490;2023-07-24T08:14:42;16.30;89.20
12125;DHT22;6126;57.908;16.490;2023-07-24T08:17:08;16.50;89.40
12125;DHT22;6126;57.908;16.490;2023-07-24T08:19:34;16.70;89.50
12125;DHT22;6126;57.908;16.490;2023-07-24T08:22:00;16.60;89.40
12125;DHT22;6126;57.908;16.490;2023-07-24T08:24:26;16.50;89.30
12125;DHT22;6126;57.908;16.490;2023-07-24T08:26:52;16.50;89.20
12125;DHT22;6126;57.908;16.490;2023-07-24T08:29:17;16.50;89.10
12125;DHT22;6126;57.908;16.490;2023-07-24T08:31:43;16.50;89.20
12125;DHT22;6126;57.908;16.490;2023-07-24T08:34:09;16.60;89.40
12125;DHT22;6126;57.908;16.490;2023-07-24T08:36:35;16.50;89.30
12125;DHT22;6126;57.908;16.490;2023-07-24T08:39:03;16.60;89.50
12125;DHT22;6126;57.908;16.490;2023-07-24T08:41:29;16.70;89.60
12125;DHT22;6126;57.908;16.490;2023-07-24T08:43:56;16.80;89.80
12125;DHT22;6126;57.908;16.490;2023-07-24T08:46:22;16.50;89.60
12125;DHT22;6126;57.908;16.490;2023-07-24T08:48:49;16.60;89.60
12125;DHT22;6126;57.908;16.490;2023-07-24T08:51:15;16.80;89.80
12125;DHT22;6126;57.908;16.490;2023-07-24T08:53:43;16.40;89.40
12125;DHT22;6126;57.908;16.490;2023-07-24T08:56:11;16.60;89.60
12125;DHT22;6126;57.908;16.490;2023-07-24T08:58:38;16.60;89.70
12125;DHT22;6126;57.908;16.490;2023-07-24T09:01:07;16.40;89.40
12125;DHT22;6126;57.908;16.490;2023-07-24T09:03:34;16.90;90.00
12125;DHT22;6126;57.908;16.490;2023-07-24T09:06:01;16.80;89.80
12125;DHT22;6126;57.908;16.490;2023-07-24T09:08:33;16.60;89.60
12125;DHT22;6126;57.908;16.490;2023-07-24T09:11:04;16.90;89.90
12125;DHT22;6126;57.908;16.490;2023-07-24T09:13:35;17.10;90.00
12125;DHT22;6126;57.908;16.490;2023-07-24T09:16:02;16.90;89.90
12125;DHT22;6126;57.908;16.490;2023-07-24T09:18:39;17.00;89.90
12125;DHT22;6126;57.908;16.490;2023-07-24T09:21:06;17.20;89.90
12125;DHT22;6126;57.908;16.490;2023-07-24T09:23:32;17.30;89.70
12125;DHT22;6126;57.908;16.490;2023-07-24T09:25:58;17.60;89.70
12125;DHT22;6126;57.908;16.490;2023-07-24T09:28:24;17.60;89.50
12125;DHT22;6126;57.908;16.490;2023-07-24T09:30:55;17.40;89.20
12125;DHT22;6126;57.908;16.490;2023-07-24T09:33:23;17.80;89.50
12125;DHT22;6126;57.908;16.490;2023-07-24T09:36:01;17.70;89.30
12125;DHT22;6126;57.908;16.490;2023-07-24T09:38:28;18.00;89.60
12125;DHT22;6126;57.908;16.490;2023-07-24T09:40:55;17.70;89.20
12125;DHT22;6126;57.908;16.490;2023-07-24T09:43:23;17.60;89.00
12125;DHT22;6126;57.908;16.490;2023-07-24T09:45:52;17.70;89.20
12125;DHT22;6126;57.908;16.490;2023-07-24T09:48:20;17.50;89.20
12125;DHT22;6126;57.908;16.490;2023-07-24T09:50:49;17.50;89.30
12125;DHT22;6126;57.908;16.490;2023-07-24T09:56:05;17.80;89.70
12125;DHT22;6126;57.908;16.490;2023-07-24T09:58:37;17.70;89.70
12125;DHT22;6126;57.908;16.490;2023-07-24T10:01:05;17.70;89.80
12125;DHT22;6126;57.908;16.490;2023-07-24T10:03:39;17.50;89.60
12125;DHT22;6126;57.908;16.490;2023-07-24T10:06:08;17.70;89.70
12125;DHT22;6126;57.908;16.490;2023-07-24T10:08:38;17.60;89.50
12125;DHT22;6126;57.908;16.490;2023-07-24T10:11:05;17.60;89.50
12125;DHT22;6126;57.908;16.490;2023-07-24T10:13:33;17.50;89.40
12125;DHT22;6126;57.908;16.490;2023-07-24T10:16:03;18.00;89.90
12125;DHT22;6126;57.908;16.490;2023-07-24T10:18:33;17.90;89.60
12125;DHT22;6126;57.908;16.490;2023-07-24T10:21:09;18.20;90.00
12125;DHT22;6126;57.908;16.490;2023-07-24T10:23:37;18.00;89.60
12125;DHT22;6126;57.908;16.490;2023-07-24T10:26:07;18.40;89.70
12125;DHT22;6126;57.908;16.490;2023-07-24T10:28:36;18.50;89.50
12125;DHT22;6126;57.908;16.490;2023-07-24T10:31:28;18.70;89.40
12125;DHT22;6126;57.908;16.490;2023-07-24T10:33:54;19.10;89.70
12125;DHT22;6126;57.908;16.490;2023-07-24T10:36:22;19.10;88.80
12125;DHT22;6126;57.908;16.490;2023-07-24T10:38:56;19.50;88.60
12125;DHT22;6126;57.908;16.490;2023-07-24T10:41:22;19.60;87.90
12125;DHT22;6126;57.908;16.490;2023-07-24T10:44:00;19.70;87.70
12125;DHT22;6126;57.908;16.490;2023-07-24T10:46:36;19.80;87.60
12125;DHT22;6126;57.908;16.490;2023-07-24T10:49:03;19.80;87.30
12125;DHT22;6126;57.908;16.490;2023-07-24T10:51:30;19.90;87.30
12125;DHT22;6126;57.908;16.490;2023-07-24T10:54:00;20.00;87.10
12125;DHT22;6126;57.908;16.490;2023-07-24T10:56:27;20.10;87.00
12125;DHT22;6126;57.908;16.490;2023-07-24T10:58:54;20.20;86.80
12125;DHT22;6126;57.908;16.490;2023-07-24T11:01:20;20.40;86.80
12125;DHT22;6126;57.908;16.490;2023-07-24T11:03:47;20.50;86.40
12125;DHT22;6126;57.908;16.490;2023-07-24T11:06:19;20.60;86.20
12125;DHT22;6126;57.908;16.490;2023-07-24T11:08:55;20.60;85.90
12125;DHT22;6126;57.908;16.490;2023-07-24T11:11:29;20.70;85.80
12125;DHT22;6126;57.908;16.490;2023-07-24T11:13:56;20.70;85.70
12125;DHT22;6126;57.908;16.490;2023-07-24T11:16:22;20.70;85.80
12125;DHT22;6126;57.908;16.490;2023-07-24T11:18:49;20.80;85.60
12125;DHT22;6126;57.908;16.490;2023-07-24T11:21:20;20.90;85.50
12125;DHT22;6126;57.908;16.490;2023-07-24T11:23:52;21.00;85.30
12125;DHT22;6126;57.908;16.490;2023-07-24T11:26:21;21.10;85.00
12125;DHT22;6126;57.908;16.490;2023-07-24T11:28:49;21.10;84.80
12125;DHT22;6126;57.908;16.490;2023-07-24T11:31:16;21.10;84.70
12125;DHT22;6126;57.908;16.490;2023-07-24T11:33:46;21.20;84.70
12125;DHT22;6126;57.908;16.490;2023-07-24T11:36:15;21.20;84.60
12125;DHT22;6126;57.908;16.490;2023-07-24T11:38:41;21.30;84.50
12125;DHT22;6126;57.908;16.490;2023-07-24T11:41:08;21.40;84.30
12125;DHT22;6126;57.908;16.490;2023-07-24T11:43:34;21.50;84.00
12125;DHT22;6126;57.908;16.490;2023-07-24T11:46:00;21.50;83.80
12125;DHT22;6126;57.908;16.490;2023-07-24T11:48:26;21.50;83.70
12125;DHT22;6126;57.908;16.490;2023-07-24T11:50:54;21.50;83.70
12125;DHT22;6126;57.908;16.490;2023-07-24T11:55:50;21.30;83.80
12125;DHT22;6126;57.908;16.490;2023-07-24T11:58:18;21.30;84.00
12125;DHT22;6126;57.908;16.490;2023-07-24T12:00:46;21.30;83.60
12125;DHT22;6126;57.908;16.490;2023-07-24T12:03:14;21.30;83.60
12125;DHT22;6126;57.908;16.490;2023-07-24T12:05:46;21.20;83.50
12125;DHT22;6126;57.908;16.490;2023-07-24T12:08:11;21.00;83.40
12125;DHT22;6126;57.908;16.490;2023-07-24T12:10:40;20.90;83.60
12125;DHT22;6126;57.908;16.490;2023-07-24T12:13:06;20.60;83.80
12125;DHT22;6126;57.908;16.490;2023-07-24T12:15:33;20.50;84.10
12125;DHT22;6126;57.908;16.490;2023-07-24T12:18:03;20.30;84.30
12125;DHT22;6126;57.908;16.490;2023-07-24T12:20:30;20.20;84.40
12125;DHT22;6126;57.908;16.490;2023-07-24T12:22:57;20.10;84.50
12125;DHT22;6126;57.908;16.490;2023-07-24T12:25:23;20.10;84.70
12125;DHT22;6126;57.908;16.490;2023-07-24T12:27:49;20.00;84.60
12125;DHT22;6126;57.908;16.490;2023-07-24T12:30:15;19.90;84.60
12125;DHT22;6126;57.908;16.490;2023-07-24T12:32:41;19.80;84.50
12125;DHT22;6126;57.908;16.490;2023-07-24T12:35:08;19.30;84.20
12125;DHT22;6126;57.908;16.490;2023-07-24T12:37:35;19.70;84.70
12125;DHT22;6126;57.908;16.490;2023-07-24T12:40:02;19.70;84.70
12125;DHT22;6126;57.908;16.490;2023-07-24T12:42:28;19.70;84.70
12125;DHT22;6126;57.908;16.490;2023-07-24T12:44:54;19.60;84.50
12125;DHT22;6126;57.908;16.490;2023-07-24T12:47:19;19.60;84.50
12125;DHT22;6126;57.908;16.490;2023-07-24T12:49:45;19.60;84.50
12125;DHT22;6126;57.908;16.490;2023-07-24T12:52:11;19.60;84.50
12125;DHT22;6126;57.908;16.490;2023-07-24T12:54:37;19.60;84.50
12125;DHT22;6126;57.908;16.490;2023-07-24T12:57:03;19.60;84.50
12125;DHT22;6126;57.908;16.490;2023-07-24T12:59:29;19.60;84.60
12125;DHT22;6126;57.908;16.490;2023-07-24T13:01:55;19.60;84.60
12125;DHT22;6126;57.908;16.490;2023-07-24T13:04:22;19.60;85.40
12125;DHT22;6126;57.908;16.490;2023-07-24T13:06:49;19.60;84.60
12125;DHT22;6126;57.908;16.490;2023-07-24T13:09:15;19.70;84.60
12125;DHT22;6126;57.908;16.490;2023-07-24T13:11:41;19.60;84.40
12125;DHT22;6126;57.908;16.490;2023-07-24T13:14:07;19.60;84.40
12125;DHT22;6126;57.908;16.490;2023-07-24T13:16:33;19.40;84.30
12125;DHT22;6126;57.908;16.490;2023-07-24T13:18:58;19.50;84.50
12125;DHT22;6126;57.908;16.490;2023-07-24T13:21:24;19.70;84.90
12125;DHT22;6126;57.908;16.490;2023-07-24T13:23:50;19.50;84.80
12125;DHT22;6126;57.908;16.490;2023-07-24T13:26:17;19.40;84.70
12125;DHT22;6126;57.908;16.490;2023-07-24T13:28:43;19.40;84.80
12125;DHT22;6126;57.908;16.490;2023-07-24T13:33:38;19.30;85.20
12125;DHT22;6126;57.908;16.490;2023-07-24T13:36:05;19.20;85.00
12125;DHT22;6126;57.908;16.490;2023-07-24T13:38:31;19.20;85.20
12125;DHT22;6126;57.908;16.490;2023-07-24T13:40:58;19.00;85.30
12125;DHT22;6126;57.908;16.490;2023-07-24T13:43:24;18.90;85.60
12125;DHT22;6126;57.908;16.490;2023-07-24T13:45:50;18.70;85.70
12125;DHT22;6126;57.908;16.490;2023-07-24T13:48:16;18.80;86.10
12125;DHT22;6126;57.908;16.490;2023-07-24T13:50:42;18.50;86.00
12125;DHT22;6126;57.908;16.490;2023-07-24T13:53:08;18.50;86.30
12125;DHT22;6126;57.908;16.490;2023-07-24T13:55:34;18.80;86.70
12125;DHT22;6126;57.908;16.490;2023-07-24T13:58:00;18.70;86.80
12125;DHT22;6126;57.908;16.490;2023-07-24T14:00:26;18.40;86.40
12125;DHT22;6126;57.908;16.490;2023-07-24T14:02:52;18.90;87.10
12125;DHT22;6126;57.908;16.490;2023-07-24T14:05:18;18.70;86.90
12125;DHT22;6126;57.908;16.490;2023-07-24T14:07:44;19.00;87.40
12125;DHT22;6126;57.908;16.490;2023-07-24T14:10:10;18.90;87.30
12125;DHT22;6126;57.908;16.490;2023-07-24T14:12:36;18.70;87.30
12125;DHT22;6126;57.908;16.490;2023-07-24T14:15:02;18.70;87.40
12125;DHT22;6126;57.908;16.490;2023-07-24T14:17:29;18.70;87.40
12125;DHT22;6126;57.908;16.490;2023-07-24T14:19:54;18.70;87.70
12125;DHT22;6126;57.908;16.490;2023-07-24T14:22:20;18.30;87.30
12125;DHT22;6126;57.908;16.490;2023-07-24T14:24:46;18.70;87.80
12125;DHT22;6126;57.908;16.490;2023-07-24T14:27:13;18.60;87.90
12125;DHT22;6126;57.908;16.490;2023-07-24T14:29:39;18.60;88.00
12125;DHT22;6126;57.908;16.490;2023-07-24T14:32:06;18.80;88.20
12125;DHT22;6126;57.908;16.490;2023-07-24T14:34:32;18.70;88.30
12125;DHT22;6126;57.908;16.490;2023-07-24T14:36:59;18.30;87.90
12125;DHT22;6126;57.908;16.490;2023-07-24T14:39:25;18.50;88.20
12125;DHT22;6126;57.908;16.490;2023-07-24T14:41:51;18.60;88.40
12125;DHT22;6126;57.908;16.490;2023-07-24T14:44:17;18.80;88.60
12125;DHT22;6126;57.908;16.490;2023-07-24T14:46:43;18.70;88.60
12125;DHT22;6126;57.908;16.490;2023-07-24T14:49:09;18.50;88.60
12125;DHT22;6126;57.908;16.490;2023-07-24T14:51:34;18.70;88.80
12125;DHT22;6126;57.908;16.490;2023-07-24T14:54:00;18.80;89.00
12125;DHT22;6126;57.908;16.490;2023-07-24T14:56:26;18.70;88.90
12125;DHT22;6126;57.908;16.490;2023-07-24T14:58:52;18.70;88.90
12125;DHT22;6126;57.908;16.490;2023-07-24T15:01:18;18.40;88.70
12125;DHT22;6126;57.908;16.490;2023-07-24T15:03:44;18.60;89.00
12125;DHT22;6126;57.908;16.490;2023-07-24T15:06:10;18.60;89.30
12125;DHT22;6126;57.908;16.490;2023-07-24T15:08:36;18.60;89.40
12125;DHT22;6126;57.908;16.490;2023-07-24T15:11:01;18.20;89.10
12125;DHT22;6126;57.908;16.490;2023-07-24T15:13:28;18.40;89.50
12125;DHT22;6126;57.908;16.490;2023-07-24T15:15:54;18.20;89.50
12125;DHT22;6126;57.908;16.490;2023-07-24T15:18:20;18.20;89.70
12125;DHT22;6126;57.908;16.490;2023-07-24T15:20:45;18.10;89.70
12125;DHT22;6126;57.908;16.490;2023-07-24T15:23:11;18.30;90.00
12125;DHT22;6126;57.908;16.490;2023-07-24T15:25:38;18.30;90.40
12125;DHT22;6126;57.908;16.490;2023-07-24T15:28:05;18.00;90.00
12125;DHT22;6126;57.908;16.490;2023-07-24T15:30:31;18.00;90.00
12125;DHT22;6126;57.908;16.490;2023-07-24T15:32:57;18.20;90.10
12125;DHT22;6126;57.908;16.490;2023-07-24T15:35:23;18.20;90.30
12125;DHT22;6126;57.908;16.490;2023-07-24T15:37:49;17.90;90.20
12125;DHT22;6126;57.908;16.490;2023-07-24T15:40:15;18.20;90.40
12125;DHT22;6126;57.908;16.490;2023-07-24T15:42:41;17.80;90.20